Time;durP1;ratioP1;P1;durP2;ratioP2;P2;SDS_P1;SDS_P2;PMS_P1;PMS_P2;Temp;Humidity;BMP_temperature;BMP_pressure;BME280_temperature;BME280_humidity;BME280_pressure;Samples;Min_cycle;Max_cycle;Signal;HPM_P1;HPM_P2
2022/12/06 00:01:12;;;;;;;12.75;4.25;;;5.10;99.90;;;;;;6184946;23;20361;-81
2022/12/06 00:03:38;;;;;;;16.30;4.30;;;5.00;99.90;;;;;;6209559;23;20012;-79
2022/12/06 00:06:09;;;;;;;13.65;4.13;;;5.10;99.90;;;;;;6210751;23;20312;-81
2022/12/06 00:08:37;;;;;;;15.27;4.57;;;5.20;99.90;;;;;;6185045;23;20009;-85
2022/12/06 00:11:11;;;;;;;17.02;4.57;;;4.90;99.90;;;;;;6211304;23;20063;-79
2022/12/06 00:13:38;;;;;;;14.63;4.85;;;5.20;99.90;;;;;;6185103;23;20113;-81
2022/12/06 00:16:07;;;;;;;16.60;4.93;;;5.10;99.90;;;;;;6185818;23;20044;-82
2022/12/06 00:18:35;;;;;;;12.82;5.03;;;5.20;99.90;;;;;;6211732;23;20036;-80
2022/12/06 00:21:06;;;;;;;17.30;6.00;;;4.90;99.90;;;;;;6186504;23;20067;-81
2022/12/06 00:23:36;;;;;;;16.80;4.90;;;4.80;99.90;;;;;;6186538;23;20013;-80
2022/12/06 00:26:04;;;;;;;18.27;5.05;;;4.80;99.90;;;;;;6215523;23;20015;-82
2022/12/06 00:28:30;;;;;;;18.00;5.20;;;4.80;99.90;;;;;;6216470;23;20396;-81
2022/12/06 00:31:01;;;;;;;16.15;4.88;;;5.00;99.90;;;;;;6190733;23;20080;-81
2022/12/06 00:33:28;;;;;;;12.13;4.65;;;4.80;99.90;;;;;;6190557;23;20012;-83
2022/12/06 00:35:58;;;;;;;15.20;4.28;;;5.10;99.90;;;;;;6188002;23;20016;-78
2022/12/06 00:38:24;;;;;;;11.80;3.95;;;4.80;99.90;;;;;;6213661;23;20319;-80
2022/12/06 00:40:57;;;;;;;14.63;3.90;;;5.10;99.90;;;;;;6211918;23;20091;-79
2022/12/06 00:43:23;;;;;;;18.83;3.90;;;5.00;99.90;;;;;;6187521;23;20352;-82
2022/12/06 00:45:49;;;;;;;12.43;4.18;;;5.10;99.90;;;;;;6188448;23;20016;-84
2022/12/06 00:48:15;;;;;;;10.50;3.42;;;4.80;99.90;;;;;;6214631;23;20015;-81
2022/12/06 00:50:40;;;;;;;16.45;3.90;;;4.70;99.90;;;;;;6214518;23;20054;-82
2022/12/06 00:53:06;;;;;;;12.07;4.00;;;5.20;99.90;;;;;;6193631;23;20016;-79
2022/12/06 00:55:32;;;;;;;15.50;3.80;;;5.10;99.90;;;;;;6219379;23;20023;-83
2022/12/06 00:58:01;;;;;;;12.23;3.40;;;4.90;99.90;;;;;;6213779;23;20047;-84
2022/12/06 01:00:27;;;;;;;9.82;2.97;;;5.10;99.90;;;;;;6216732;23;20423;-81
2022/12/06 01:02:52;;;;;;;12.85;3.25;;;4.90;99.90;;;;;;6244400;23;20455;-83
2022/12/06 01:05:18;;;;;;;10.55;3.17;;;4.80;99.90;;;;;;6215474;23;20024;-79
2022/12/06 01:07:44;;;;;;;5.72;2.10;;;5.10;99.90;;;;;;6191914;23;20016;-82
2022/12/06 01:10:10;;;;;;;8.30;2.35;;;4.80;99.90;;;;;;6216909;23;20087;-84
2022/12/06 01:12:36;;;;;;;6.28;2.00;;;4.90;99.90;;;;;;6194369;23;20079;-81
2022/12/06 01:15:02;;;;;;;6.38;2.05;;;4.80;99.90;;;;;;6222430;23;20046;-79
2022/12/06 01:17:28;;;;;;;4.63;2.03;;;4.90;99.90;;;;;;6229761;23;20020;-82
2022/12/06 01:19:53;;;;;;;4.43;1.60;;;4.70;99.90;;;;;;6189586;23;20297;-81
2022/12/06 01:22:19;;;;;;;5.90;1.40;;;4.80;99.90;;;;;;6212398;23;20043;-84
2022/12/06 01:24:46;;;;;;;8.73;1.73;;;5.00;99.90;;;;;;6187276;23;20020;-83
2022/12/06 01:27:12;;;;;;;5.75;1.35;;;4.80;99.90;;;;;;6119208;23;1574895;-78
2022/12/06 01:29:37;;;;;;;6.22;1.17;;;4.90;99.90;;;;;;6212284;23;20092;-87
2022/12/06 01:32:04;;;;;;;4.97;1.10;;;4.90;99.90;;;;;;6185025;23;20013;-82
2022/12/06 01:34:30;;;;;;;6.28;1.00;;;4.70;99.90;;;;;;6210692;23;20154;-80
2022/12/06 01:36:56;;;;;;;3.45;0.98;;;4.90;99.90;;;;;;6210682;23;20023;-80
2022/12/06 01:39:22;;;;;;;1.95;0.95;;;4.60;99.90;;;;;;6209657;23;20017;-82
2022/12/06 01:41:48;;;;;;;1.50;0.77;;;4.90;99.90;;;;;;6211734;23;20024;-82
2022/12/06 01:44:46;;;;;;;2.55;1.00;;;4.90;99.90;;;;;;6187369;23;20024;-82
2022/12/06 01:47:19;;;;;;;5.05;1.00;;;4.90;99.90;;;;;;6185967;23;20009;-80
2022/12/06 01:49:59;;;;;;;5.50;1.27;;;4.70;99.90;;;;;;6187058;23;20013;-84
2022/12/06 01:52:35;;;;;;;3.30;1.20;;;4.90;99.90;;;;;;6221016;23;20064;-79
2022/12/06 01:55:02;;;;;;;3.90;1.10;;;4.80;99.90;;;;;;6198055;23;20017;-78
2022/12/06 01:57:29;;;;;;;2.55;1.20;;;4.60;99.90;;;;;;6221789;23;20012;-78
2022/12/06 01:59:55;;;;;;;2.25;1.20;;;4.70;99.90;;;;;;6197200;23;20017;-81
2022/12/06 02:02:20;;;;;;;4.80;1.42;;;4.70;99.90;;;;;;6222865;23;20035;-78
2022/12/06 02:04:47;;;;;;;8.98;1.42;;;4.90;99.90;;;;;;6223448;23;20008;-79
2022/12/06 02:07:13;;;;;;;4.18;1.30;;;4.80;99.90;;;;;;6175201;23;20035;-77
2022/12/06 02:09:39;;;;;;;3.67;1.38;;;4.60;99.90;;;;;;6224387;23;20799;-79
2022/12/06 02:12:13;;;;;;;6.78;2.00;;;4.70;99.90;;;;;;6192982;23;20021;-81
2022/12/06 02:14:40;;;;;;;4.00;1.40;;;4.80;99.90;;;;;;6183556;23;20099;-84
2022/12/06 02:17:27;;;;;;;3.20;1.40;;;4.60;99.90;;;;;;6155600;23;20024;-80
2022/12/06 02:20:17;;;;;;;3.65;1.52;;;4.80;99.90;;;;;;6153983;23;20021;-82
2022/12/06 02:23:04;;;;;;;4.57;1.88;;;4.60;99.90;;;;;;6127051;23;20013;-85
2022/12/06 02:25:48;;;;;;;5.90;1.75;;;4.50;99.90;;;;;;6152078;23;20084;-86
2022/12/06 02:29:03;;;;;;;6.00;1.90;;;4.80;99.90;;;;;;6153266;23;20365;-81
2022/12/06 02:31:40;;;;;;;5.20;2.17;;;4.80;99.90;;;;;;5995376;23;20078;-79
2022/12/06 02:34:29;;;;;;;12.27;2.67;;;4.50;99.90;;;;;;6027730;23;20022;-80
2022/12/06 02:37:13;;;;;;;6.20;2.25;;;4.70;99.90;;;;;;6021019;23;20450;-84
2022/12/06 02:39:43;;;;;;;9.55;2.30;;;4.60;99.90;;;;;;6022578;23;20019;-78
2022/12/06 02:42:31;;;;;;;8.23;2.30;;;4.40;99.90;;;;;;6053876;23;20085;-80
2022/12/06 02:45:01;;;;;;;4.97;2.15;;;4.70;99.90;;;;;;6066097;23;20062;-81
2022/12/06 02:47:33;;;;;;;6.57;2.35;;;4.40;99.90;;;;;;6128476;23;20014;-81
2022/12/06 02:50:02;;;;;;;3.03;1.90;;;4.60;99.90;;;;;;6122920;23;20116;-77
2022/12/06 02:52:30;;;;;;;3.55;1.70;;;4.70;99.90;;;;;;6124171;23;20045;-80
2022/12/06 02:55:00;;;;;;;8.98;2.15;;;4.70;99.90;;;;;;6071657;23;20073;-80
2022/12/06 02:57:44;;;;;;;6.88;2.47;;;4.30;99.90;;;;;;6071151;23;20088;-79
2022/12/06 03:00:41;;;;;;;11.13;2.77;;;4.60;99.90;;;;;;6117493;23;20042;-80
2022/12/06 03:03:38;;;;;;;9.13;2.70;;;4.30;99.90;;;;;;6093583;23;20036;-83
2022/12/06 03:06:21;;;;;;;9.30;2.35;;;4.70;99.90;;;;;;6097158;23;20169;-80
2022/12/06 03:09:03;;;;;;;9.10;2.50;;;4.40;99.90;;;;;;6189211;23;20023;-81
2022/12/06 03:11:42;;;;;;;8.98;2.65;;;4.60;99.90;;;;;;6186715;23;20032;-82
2022/12/06 03:14:14;;;;;;;10.10;2.53;;;4.40;99.90;;;;;;6162618;23;20019;-84
2022/12/06 03:17:04;;;;;;;6.88;2.30;;;4.40;99.90;;;;;;6184816;23;20344;-83
2022/12/06 03:19:31;;;;;;;7.03;2.10;;;4.60;99.90;;;;;;6184480;23;20285;-81
2022/12/06 03:22:07;;;;;;;5.20;1.90;;;4.60;99.90;;;;;;6210909;23;20336;-83
2022/12/06 03:24:38;;;;;;;4.68;1.90;;;4.70;99.90;;;;;;6181589;23;20095;-84
2022/12/06 03:27:11;;;;;;;7.75;2.30;;;4.70;99.90;;;;;;6206598;23;20448;-79
2022/12/06 03:29:42;;;;;;;5.72;1.92;;;4.70;99.90;;;;;;6183569;23;20020;-83
2022/12/06 03:32:10;;;;;;;5.43;2.03;;;4.40;99.90;;;;;;6210634;23;20012;-84
2022/12/06 03:34:39;;;;;;;12.40;2.83;;;4.40;99.90;;;;;;6211591;23;20379;-81
2022/12/06 03:37:09;;;;;;;9.70;1.88;;;4.60;99.90;;;;;;6207974;23;20070;-82
2022/12/06 03:39:52;;;;;;;5.25;1.90;;;4.60;99.90;;;;;;6207725;23;20013;-80
2022/12/06 03:42:19;;;;;;;5.18;2.03;;;4.50;99.90;;;;;;6183133;23;20019;-79
2022/12/06 03:44:46;;;;;;;4.55;1.83;;;4.40;99.90;;;;;;6184063;23;20412;-85
2022/12/06 03:47:58;;;;;;;4.53;2.00;;;4.40;99.90;;;;;;6184522;23;20017;-83
2022/12/06 03:50:35;;;;;;;4.63;1.70;;;4.30;99.90;;;;;;6153574;23;20019;-86
2022/12/06 03:53:01;;;;;;;3.38;1.48;;;4.30;99.90;;;;;;6209164;23;20082;-86
2022/12/06 03:55:27;;;;;;;5.78;1.52;;;4.40;99.90;;;;;;6209391;23;20343;-81
2022/12/06 03:57:54;;;;;;;5.85;1.63;;;4.40;99.90;;;;;;6185737;23;20016;-78
2022/12/06 04:00:20;;;;;;;4.63;1.30;;;4.40;99.90;;;;;;6185562;23;20016;-85
2022/12/06 04:02:45;;;;;;;5.13;1.30;;;4.00;99.90;;;;;;6211418;23;20026;-82
2022/12/06 04:05:11;;;;;;;5.03;1.25;;;4.10;99.90;;;;;;6186368;23;20024;-81
2022/12/06 04:07:37;;;;;;;2.85;1.38;;;4.20;99.90;;;;;;6188381;23;20110;-81
2022/12/06 04:10:04;;;;;;;5.03;1.23;;;4.00;99.90;;;;;;6211101;23;20009;-81
2022/12/06 04:18:56;;;;;;;2.67;1.10;;;3.90;99.90;;;;;;6210961;23;20020;-81
2022/12/06 04:23:56;;;;;;;4.32;1.48;;;3.90;99.90;;;;;;6210457;23;20389;-80
2022/12/06 04:26:23;;;;;;;4.00;1.30;;;3.80;99.90;;;;;;6184988;23;20023;-81
2022/12/06 04:39:50;;;;;;;6.68;1.80;;;3.90;99.90;;;;;;6217263;23;20462;-81
2022/12/06 04:45:00;;;;;;;6.85;1.88;;;3.80;99.90;;;;;;6224485;23;20016;-81
2022/12/06 04:47:25;;;;;;;3.95;1.48;;;3.70;99.90;;;;;;6216972;23;20511;-83
2022/12/06 04:49:51;;;;;;;3.70;1.40;;;3.60;99.90;;;;;;6215652;23;20023;-81
2022/12/06 04:52:17;;;;;;;4.38;1.48;;;3.20;99.90;;;;;;6220274;23;20323;-83
2022/12/06 04:54:43;;;;;;;3.42;1.63;;;3.40;99.90;;;;;;6192394;23;20024;-83
2022/12/06 04:57:12;;;;;;;2.65;1.20;;;3.50;99.90;;;;;;6214463;23;20027;-82
2022/12/06 04:59:40;;;;;;;3.22;1.45;;;3.40;99.90;;;;;;6189117;23;20012;-82
2022/12/06 05:02:08;;;;;;;8.50;1.80;;;3.20;99.90;;;;;;6187852;23;20159;-86
2022/12/06 05:04:34;;;;;;;2.60;1.33;;;3.10;99.90;;;;;;6188737;23;20017;-80
2022/12/06 05:07:00;;;;;;;2.70;1.40;;;3.30;99.90;;;;;;6187622;23;20012;-84
2022/12/06 05:09:26;;;;;;;4.43;3.13;;;3.00;99.90;;;;;;6187058;23;20062;-83
2022/12/06 05:11:52;;;;;;;4.70;2.83;;;3.00;99.90;;;;;;6163493;23;20012;-85
2022/12/06 05:14:18;;;;;;;7.10;2.75;;;3.40;99.90;;;;;;6190248;23;20479;-83
2022/12/06 05:16:44;;;;;;;5.50;2.50;;;3.20;99.90;;;;;;6186727;23;20019;-83
2022/12/06 05:19:12;;;;;;;8.20;2.85;;;3.60;99.90;;;;;;6185632;23;20347;-82
2022/12/06 05:21:38;;;;;;;16.25;4.95;;;3.60;99.90;;;;;;6209612;23;20017;-84
2022/12/06 05:24:04;;;;;;;13.68;5.15;;;3.70;99.90;;;;;;6185468;23;20019;-82
2022/12/06 05:26:29;;;;;;;13.35;7.10;;;3.70;99.90;;;;;;6184962;23;20044;-80
2022/12/06 05:28:56;;;;;;;17.33;7.60;;;3.80;99.90;;;;;;6217161;23;20023;-82
2022/12/06 05:31:22;;;;;;;12.88;7.80;;;3.70;99.90;;;;;;6193470;23;20019;-82
2022/12/06 05:33:48;;;;;;;14.70;6.40;;;3.90;99.90;;;;;;6217734;23;20087;-80
2022/12/06 05:36:20;;;;;;;13.50;6.63;;;3.70;99.90;;;;;;6190784;23;20023;-82
2022/12/06 05:38:47;;;;;;;10.60;5.53;;;3.60;99.90;;;;;;6195386;23;20013;-82
2022/12/06 05:41:13;;;;;;;10.27;4.70;;;3.90;99.90;;;;;;6219734;23;20012;-82
2022/12/06 05:43:39;;;;;;;10.15;5.68;;;3.80;99.90;;;;;;6191851;23;20020;-84
2022/12/06 05:46:05;;;;;;;8.60;3.80;;;3.50;99.90;;;;;;6216940;23;20043;-80
2022/12/06 05:48:31;;;;;;;12.95;4.30;;;3.70;99.90;;;;;;6218082;23;20078;-79
2022/12/06 05:50:57;;;;;;;8.73;3.08;;;3.40;99.90;;;;;;6193736;23;20016;-81
2022/12/06 05:53:24;;;;;;;9.18;3.30;;;3.30;99.90;;;;;;6219298;23;20012;-83
2022/12/06 05:55:50;;;;;;;12.65;3.28;;;3.60;99.90;;;;;;6193058;23;20016;-81
2022/12/06 05:58:17;;;;;;;5.10;2.83;;;3.20;99.90;;;;;;6217950;23;20007;-82
2022/12/06 06:00:48;;;;;;;7.68;2.90;;;3.60;99.90;;;;;;6218611;23;20015;-81
2022/12/06 06:03:16;;;;;;;9.23;3.08;;;3.30;99.90;;;;;;6215554;23;20028;-81
2022/12/06 06:05:46;;;;;;;13.60;3.13;;;3.60;99.90;;;;;;6217655;23;20653;-83
2022/12/06 06:08:12;;;;;;;7.85;3.40;;;3.50;99.90;;;;;;6217309;23;20016;-84
2022/12/06 06:10:37;;;;;;;8.95;3.35;;;3.80;99.90;;;;;;6190441;23;20027;-81
2022/12/06 06:13:03;;;;;;;6.47;3.05;;;3.70;99.90;;;;;;6190993;23;20034;-80
2022/12/06 06:15:29;;;;;;;9.57;3.28;;;3.70;99.90;;;;;;6189731;23;20019;-78
2022/12/06 06:17:55;;;;;;;6.78;3.22;;;3.60;99.90;;;;;;6188901;23;20023;-82
2022/12/06 06:20:20;;;;;;;8.13;3.47;;;3.70;99.90;;;;;;6189735;23;20055;-82
2022/12/06 06:22:46;;;;;;;9.07;3.05;;;3.60;99.90;;;;;;6216230;23;20030;-83
2022/12/06 06:25:12;;;;;;;8.13;3.53;;;3.40;99.90;;;;;;6188141;23;20111;-82
2022/12/06 06:27:38;;;;;;;8.98;3.63;;;3.30;99.90;;;;;;6209113;23;20314;-83
2022/12/06 06:30:09;;;;;;;6.90;3.13;;;3.40;99.90;;;;;;6211388;23;20058;-81
2022/12/06 06:32:35;;;;;;;11.90;3.22;;;3.20;99.90;;;;;;6209146;23;20012;-84
2022/12/06 06:35:02;;;;;;;7.57;3.30;;;3.40;99.90;;;;;;6208845;23;20016;-85
2022/12/06 06:37:28;;;;;;;8.30;2.97;;;3.10;99.90;;;;;;6186294;23;20448;-79
2022/12/06 06:39:53;;;;;;;7.55;3.30;;;2.80;99.90;;;;;;6210169;23;20040;-84
2022/12/06 06:42:24;;;;;;;7.07;3.60;;;2.90;99.90;;;;;;6208871;23;20099;-82
2022/12/06 06:44:50;;;;;;;10.65;3.42;;;2.70;99.90;;;;;;6184527;23;20035;-82
2022/12/06 06:47:16;;;;;;;8.32;3.33;;;2.70;99.90;;;;;;6184863;23;20018;-83
2022/12/06 06:49:42;;;;;;;8.75;3.80;;;2.30;99.90;;;;;;6210169;23;20076;-82
2022/12/06 06:52:08;;;;;;;10.23;3.30;;;2.40;99.90;;;;;;6212920;23;20016;-81
2022/12/06 06:54:33;;;;;;;7.85;3.38;;;2.40;99.90;;;;;;6208522;23;20850;-79
2022/12/06 06:57:01;;;;;;;6.93;3.30;;;2.40;99.90;;;;;;6211095;23;20104;-80
2022/12/06 06:59:26;;;;;;;11.00;3.90;;;2.30;99.90;;;;;;6182211;23;20074;-81
2022/12/06 07:01:52;;;;;;;12.68;3.90;;;1.90;99.90;;;;;;6209341;23;20017;-80
2022/12/06 07:04:18;;;;;;;8.63;4.00;;;1.90;99.90;;;;;;6183238;23;20016;-79
2022/12/06 07:06:43;;;;;;;7.57;4.30;;;2.00;99.90;;;;;;6186522;23;20027;-80
2022/12/06 07:09:10;;;;;;;10.15;4.40;;;2.30;99.90;;;;;;6185847;23;20376;-80
2022/12/06 07:11:54;;;;;;;9.30;4.30;;;2.30;99.90;;;;;;6213955;23;20020;-81
2022/12/06 07:14:20;;;;;;;11.00;4.60;;;2.10;99.90;;;;;;6211181;23;20020;-82
2022/12/06 07:16:45;;;;;;;11.77;4.68;;;2.30;99.90;;;;;;6213511;23;20028;-82
2022/12/06 07:19:11;;;;;;;8.23;4.90;;;2.20;99.90;;;;;;6215465;23;20012;-79
2022/12/06 07:21:41;;;;;;;10.02;4.72;;;2.10;99.90;;;;;;6212368;23;20026;-80
2022/12/06 07:24:08;;;;;;;11.35;4.63;;;2.30;99.90;;;;;;6215910;23;20047;-81
2022/12/06 07:31:11;;;;;;;10.55;4.75;;;2.40;99.90;;;;;;6251744;23;20023;-79
2022/12/06 07:33:41;;;;;;;10.27;5.05;;;2.10;99.90;;;;;;6257874;23;20020;-79
2022/12/06 07:36:08;;;;;;;12.48;5.90;;;2.30;99.90;;;;;;6229437;23;20019;-81
2022/12/06 07:38:33;;;;;;;11.45;5.82;;;1.90;99.90;;;;;;6205178;23;20047;-84
2022/12/06 07:44:59;;;;;;;8.73;5.38;;;2.00;99.90;;;;;;6220409;23;20102;-85
2022/12/06 07:45:00;;;;;;;10.02;4.90;;;1.90;99.90;;;;;;6153507;23;20214;-85
2022/12/06 07:47:30;;;;;;;11.38;5.05;;;1.80;99.90;;;;;;6137003;23;20330;-79
2022/12/06 07:49:56;;;;;;;10.93;5.57;;;1.80;99.90;;;;;;6128083;23;20020;-81
2022/12/06 07:52:22;;;;;;;13.13;5.65;;;1.90;99.90;;;;;;6131856;23;20132;-81
2022/12/06 07:54:48;;;;;;;12.50;5.95;;;1.80;99.90;;;;;;6107258;23;20021;-79
2022/12/06 07:57:14;;;;;;;19.65;6.80;;;1.90;99.90;;;;;;6106549;23;20037;-81
2022/12/06 07:59:39;;;;;;;18.63;7.45;;;1.90;99.90;;;;;;6129598;23;20021;-81
2022/12/06 08:02:05;;;;;;;14.73;6.18;;;2.10;99.90;;;;;;6104298;23;20291;-82
2022/12/06 08:04:31;;;;;;;17.23;7.85;;;2.30;99.90;;;;;;6151407;23;20545;-82
2022/12/06 08:06:59;;;;;;;20.13;7.40;;;2.30;99.90;;;;;;6126265;23;20048;-85
2022/12/06 08:09:25;;;;;;;12.55;6.13;;;2.10;99.90;;;;;;6099220;23;20028;-81
2022/12/06 08:11:51;;;;;;;10.63;5.90;;;2.50;99.90;;;;;;6149124;23;20017;-82
2022/12/06 08:14:16;;;;;;;11.88;5.15;;;2.30;99.90;;;;;;6171678;23;20024;-83
2022/12/06 08:16:42;;;;;;;16.00;5.38;;;2.30;99.90;;;;;;6191680;23;20023;-82
2022/12/06 08:19:09;;;;;;;13.13;5.45;;;2.50;99.90;;;;;;6193288;23;20012;-81
2022/12/06 08:21:34;;;;;;;12.10;5.20;;;2.50;99.90;;;;;;6191972;23;20118;-81
2022/12/06 08:24:02;;;;;;;10.30;4.90;;;2.80;99.90;;;;;;6216443;23;20530;-82
2022/12/06 08:26:29;;;;;;;13.18;5.15;;;2.50;99.90;;;;;;6217682;23;20090;-82
2022/12/06 08:29:27;;;;;;;10.82;5.78;;;2.60;99.90;;;;;;6192051;23;20020;-85
2022/12/06 08:31:53;;;;;;;9.82;5.40;;;2.60;99.90;;;;;;6187222;23;20021;-85
2022/12/06 08:34:20;;;;;;;9.85;5.47;;;2.80;99.90;;;;;;6188661;23;20020;-82
2022/12/06 08:36:46;;;;;;;7.85;4.97;;;2.60;99.90;;;;;;6189011;23;20492;-83
2022/12/06 08:39:12;;;;;;;15.00;5.43;;;2.90;99.90;;;;;;6215283;23;20047;-80
2022/12/06 08:41:57;;;;;;;14.82;5.30;;;2.60;99.90;;;;;;6187342;23;20130;-80
2022/12/06 08:44:25;;;;;;;11.57;4.97;;;2.60;99.90;;;;;;6161015;23;20012;-80
2022/12/06 08:46:51;;;;;;;8.93;4.53;;;2.50;99.90;;;;;;6186590;23;20017;-82
2022/12/06 08:49:17;;;;;;;10.15;4.40;;;2.60;99.90;;;;;;6184786;23;20012;-82
2022/12/06 08:51:43;;;;;;;7.50;4.50;;;2.60;99.90;;;;;;6165107;23;20023;-82
2022/12/06 08:54:13;;;;;;;11.43;4.40;;;2.90;99.90;;;;;;6192587;23;20026;-79
2022/12/06 08:56:38;;;;;;;9.40;4.88;;;3.00;99.90;;;;;;6192955;23;20024;-80
2022/12/06 08:59:05;;;;;;;12.48;4.50;;;3.10;99.90;;;;;;6194595;23;20119;-80
2022/12/06 09:01:32;;;;;;;10.90;4.32;;;3.00;99.90;;;;;;6189900;23;20021;-83
2022/12/06 09:03:59;;;;;;;10.23;4.60;;;2.90;99.90;;;;;;6140179;23;20020;-81
2022/12/06 09:06:25;;;;;;;11.35;4.68;;;3.00;99.90;;;;;;6216782;23;20023;-81
2022/12/06 09:08:50;;;;;;;12.13;4.93;;;3.20;99.90;;;;;;6187763;23;20016;-87
2022/12/06 09:11:17;;;;;;;9.93;4.70;;;3.20;99.90;;;;;;6189095;23;20389;-85
2022/12/06 09:13:43;;;;;;;10.65;4.80;;;3.20;99.90;;;;;;6189265;23;20024;-84
2022/12/06 09:16:18;;;;;;;11.90;4.90;;;3.30;99.90;;;;;;6189591;23;20017;-81
2022/12/06 09:18:44;;;;;;;11.48;4.88;;;3.30;99.90;;;;;;6162970;23;20017;-85
2022/12/06 09:21:13;;;;;;;9.95;4.78;;;3.00;99.90;;;;;;6163148;23;20009;-84
2022/12/06 09:23:39;;;;;;;10.45;4.10;;;3.30;99.90;;;;;;6186262;23;20021;-85
2022/12/06 09:26:05;;;;;;;14.85;4.60;;;3.10;99.90;;;;;;6163489;23;20070;-83
2022/12/06 09:28:35;;;;;;;9.90;4.80;;;3.20;99.90;;;;;;6162832;23;20012;-87
2022/12/06 09:31:03;;;;;;;10.23;5.07;;;3.30;99.90;;;;;;6175205;23;20077;-81
2022/12/06 09:33:29;;;;;;;10.82;4.70;;;3.10;99.90;;;;;;6210549;23;20491;-80
2022/12/06 09:35:56;;;;;;;9.73;5.15;;;3.20;99.90;;;;;;6208980;23;20016;-83
2022/12/06 09:38:25;;;;;;;14.57;5.57;;;3.20;99.90;;;;;;6213966;23;20309;-82
2022/12/06 09:41:00;;;;;;;14.32;4.75;;;3.50;99.90;;;;;;6214832;23;20080;-81
2022/12/06 09:43:51;;;;;;;11.80;5.10;;;3.30;99.90;;;;;;6188174;23;20116;-85
2022/12/06 09:46:45;;;;;;;9.18;4.45;;;3.50;99.90;;;;;;6212274;23;20012;-82
2022/12/06 09:49:30;;;;;;;13.00;4.57;;;3.60;99.90;;;;;;6188359;23;20064;-82
2022/12/06 09:52:20;;;;;;;10.93;4.70;;;3.80;99.90;;;;;;6187155;23;20016;-83
2022/12/06 09:55:17;;;;;;;11.07;4.30;;;3.90;99.90;;;;;;6185702;23;20396;-83
2022/12/06 09:58:14;;;;;;;11.40;4.50;;;3.60;99.90;;;;;;6187243;23;20621;-81
2022/12/06 10:01:00;;;;;;;11.23;4.10;;;4.10;99.90;;;;;;6212327;23;20067;-82
2022/12/06 10:03:46;;;;;;;11.63;4.30;;;3.90;99.90;;;;;;6187170;23;20023;-80
2022/12/06 10:06:15;;;;;;;11.90;4.47;;;4.00;99.90;;;;;;6213591;23;20023;-82
2022/12/06 10:09:17;;;;;;;9.13;4.28;;;4.30;99.90;;;;;;6186184;23;20444;-83
2022/12/06 10:12:07;;;;;;;7.55;4.20;;;4.30;99.90;;;;;;6191578;23;20027;-82
2022/12/06 10:14:50;;;;;;;7.28;4.05;;;4.30;99.90;;;;;;6212447;23;20016;-88
2022/12/06 10:17:45;;;;;;;12.75;4.32;;;4.50;99.90;;;;;;6215090;23;20056;-81
2022/12/06 10:20:27;;;;;;;8.63;3.30;;;4.80;99.90;;;;;;6212821;23;20017;-81
2022/12/06 10:23:07;;;;;;;6.80;3.00;;;5.00;99.90;;;;;;6213032;23;20437;-80
2022/12/06 10:25:40;;;;;;;9.07;3.03;;;5.10;99.90;;;;;;6215893;23;20015;-82
2022/12/06 10:28:13;;;;;;;8.52;2.80;;;5.30;99.90;;;;;;6216341;23;20012;-83
2022/12/06 10:30:51;;;;;;;8.50;2.50;;;5.30;99.90;;;;;;6213482;23;20048;-84
2022/12/06 10:33:40;;;;;;;6.85;2.47;;;5.20;99.90;;;;;;6213814;23;20051;-85
2022/12/06 10:36:08;;;;;;;10.10;2.55;;;5.40;99.90;;;;;;6212238;23;20074;-83
2022/12/06 10:38:54;;;;;;;5.80;2.22;;;5.30;99.90;;;;;;6185932;23;20443;-80
2022/12/06 10:41:32;;;;;;;9.50;2.25;;;5.30;99.90;;;;;;6187362;23;20368;-86
2022/12/06 10:44:31;;;;;;;7.57;2.00;;;5.40;99.90;;;;;;6186889;23;20104;-81
2022/12/06 10:47:26;;;;;;;7.20;2.20;;;5.40;99.90;;;;;;6187200;23;20428;-82
2022/12/06 10:49:55;;;;;;;8.73;2.10;;;5.50;99.90;;;;;;6068322;23;20014;-82
2022/12/06 10:52:34;;;;;;;5.13;2.13;;;5.80;99.90;;;;;;6067818;23;20362;-80
2022/12/06 10:55:09;;;;;;;5.45;2.20;;;5.80;99.90;;;;;;6067519;23;20040;-81
2022/12/06 10:57:51;;;;;;;;;;;5.70;99.90;;;;;;6071413;23;20014;-86
2022/12/06 11:00:20;;;;;;;4.28;2.30;;;5.60;99.90;;;;;;6093261;23;20300;-82
2022/12/06 11:03:10;;;;;;;5.57;2.22;;;5.70;99.90;;;;;;6070961;23;20018;-86
2022/12/06 11:06:13;;;;;;;5.38;2.00;;;5.60;99.90;;;;;;5957562;24;20039;-81
2022/12/06 11:08:56;;;;;;;11.13;3.55;;;5.50;99.90;;;;;;5977412;24;20324;-83
2022/12/06 11:11:32;;;;;;;5.00;2.53;;;5.70;99.90;;;;;;5980635;24;20105;-86
2022/12/06 11:14:19;;;;;;;6.28;2.38;;;5.60;99.90;;;;;;6001518;23;20020;-83
2022/12/06 11:16:55;;;;;;;3.05;1.92;;;5.90;99.90;;;;;;5977887;24;20434;-83
2022/12/06 11:19:51;;;;;;;8.23;2.60;;;6.00;99.90;;;;;;5954315;24;20110;-86
2022/12/06 11:22:23;;;;;;;8.02;2.90;;;6.00;99.90;;;;;;5879852;24;20017;-84
2022/12/06 11:25:00;;;;;;;11.30;2.53;;;6.00;99.90;;;;;;5901237;24;20021;-81
2022/12/06 11:27:33;;;;;;;6.78;3.22;;;6.00;99.90;;;;;;5963693;23;20011;-84
2022/12/06 11:30:03;;;;;;;6.00;2.58;;;6.00;99.90;;;;;;6012901;23;20094;-82
2022/12/06 11:32:28;;;;;;;3.55;2.40;;;6.20;99.90;;;;;;6015031;23;20019;-80
2022/12/06 11:35:00;;;;;;;3.72;2.10;;;6.20;99.90;;;;;;5991286;23;20106;-82
2022/12/06 11:37:29;;;;;;;6.88;1.92;;;6.20;99.90;;;;;;6015469;23;20023;-82
2022/12/06 11:40:04;;;;;;;5.35;1.85;;;6.10;99.90;;;;;;5986630;23;20073;-79
2022/12/06 11:42:30;;;;;;;;;;;6.10;99.90;;;;;;6056702;23;20036;-83
2022/12/06 11:45:20;;;;;;;11.27;2.90;;;6.00;99.90;;;;;;6134286;23;19912;-83
2022/12/06 11:47:46;;;;;;;7.68;2.20;;;6.20;99.90;;;;;;6142803;23;20433;-81
2022/12/06 11:50:16;;;;;;;3.65;1.98;;;6.10;99.90;;;;;;6190123;23;20013;-83
2022/12/06 11:52:51;;;;;;;7.20;2.33;;;6.10;99.90;;;;;;6132019;23;20019;-85
2022/12/06 11:55:26;;;;;;;7.95;2.53;;;5.90;99.90;;;;;;6133136;23;20415;-80
2022/12/06 11:57:57;;;;;;;5.40;2.20;;;6.00;99.90;;;;;;6187282;23;20028;-83
2022/12/06 12:00:24;;;;;;;3.03;2.00;;;5.90;99.90;;;;;;6214865;23;20120;-81
2022/12/06 12:02:53;;;;;;;6.13;1.92;;;6.00;99.90;;;;;;6213118;23;20020;-85
2022/12/06 12:05:37;;;;;;;6.68;1.60;;;6.30;99.90;;;;;;6212153;23;20013;-80
2022/12/06 12:08:15;;;;;;;7.55;1.90;;;6.20;99.90;;;;;;6186218;23;20012;-83
2022/12/06 12:10:58;;;;;;;3.53;1.80;;;6.40;99.90;;;;;;6218303;23;20023;-84
2022/12/06 12:14:02;;;;;;;3.70;2.15;;;6.60;99.90;;;;;;6188997;23;20016;-82
2022/12/06 12:16:48;;;;;;;5.55;2.03;;;6.70;99.90;;;;;;6212119;23;20013;-82
2022/12/06 12:19:45;;;;;;;3.58;1.70;;;6.50;99.90;;;;;;6186555;23;20099;-81
2022/12/06 12:22:37;;;;;;;4.47;1.70;;;6.60;99.90;;;;;;6213008;23;20055;-78
2022/12/06 12:25:26;;;;;;;4.32;1.60;;;6.70;99.90;;;;;;6162068;23;20092;-82
2022/12/06 12:28:01;;;;;;;2.55;1.40;;;6.60;99.90;;;;;;6188083;23;20087;-82
2022/12/06 12:30:37;;;;;;;5.60;2.47;;;6.60;99.90;;;;;;6183935;23;20035;-82
2022/12/06 12:33:06;;;;;;;5.55;2.40;;;6.60;99.90;;;;;;6165176;23;20016;-82
2022/12/06 12:35:35;;;;;;;7.78;2.28;;;6.40;99.90;;;;;;6162114;23;20075;-79
2022/12/06 12:38:11;;;;;;;3.05;1.90;;;6.40;99.90;;;;;;6187672;23;20377;-80
2022/12/06 12:40:44;;;;;;;5.82;2.10;;;6.40;99.90;;;;;;6213107;23;20012;-80
2022/12/06 12:43:24;;;;;;;3.78;2.25;;;6.50;99.90;;;;;;6165549;23;20032;-81
2022/12/06 12:46:08;;;;;;;8.23;2.70;;;6.50;99.90;;;;;;6165891;23;20708;-83
2022/12/06 12:48:35;;;;;;;4.30;2.22;;;6.50;99.90;;;;;;6225392;23;20075;-79
2022/12/06 12:51:05;;;;;;;6.88;2.45;;;6.60;99.90;;;;;;6172677;23;20394;-79
2022/12/06 12:53:38;;;;;;;5.15;2.10;;;6.60;99.90;;;;;;6198618;23;20055;-80
2022/12/06 12:56:12;;;;;;;3.70;2.20;;;6.80;99.90;;;;;;6197678;23;20072;-81
2022/12/06 12:58:38;;;;;;;5.88;2.00;;;6.60;99.90;;;;;;6194093;23;20035;-80
2022/12/06 13:01:31;;;;;;;9.43;2.25;;;6.70;99.90;;;;;;6197661;23;20016;-79
2022/12/06 13:04:06;;;;;;;5.18;2.00;;;6.60;99.90;;;;;;6188520;23;20048;-80
2022/12/06 13:06:37;;;;;;;5.95;2.00;;;6.70;99.90;;;;;;6157843;23;20012;-84
2022/12/06 13:09:05;;;;;;;3.95;2.35;;;6.90;99.90;;;;;;6158047;23;20055;-80
2022/12/06 13:11:39;;;;;;;6.03;2.35;;;6.80;99.90;;;;;;6183886;23;20348;-83
2022/12/06 13:14:12;;;;;;;4.80;2.10;;;6.90;99.90;;;;;;6160846;23;20730;-83
2022/12/06 13:16:42;;;;;;;7.68;1.52;;;6.70;99.90;;;;;;6209798;23;20008;-78
2022/12/06 13:19:14;;;;;;;3.17;1.90;;;6.90;99.90;;;;;;6180906;23;20139;-79
2022/12/06 13:21:47;;;;;;;5.43;2.78;;;6.90;99.90;;;;;;6184398;23;20118;-83
2022/12/06 13:24:19;;;;;;;6.72;2.38;;;6.70;99.90;;;;;;6184451;23;20108;-83
2022/12/06 13:26:58;;;;;;;7.43;2.65;;;6.90;99.90;;;;;;6185462;23;20009;-79
2022/12/06 13:29:30;;;;;;;6.32;2.20;;;6.80;99.90;;;;;;6186217;23;20017;-79
2022/12/06 13:31:59;;;;;;;4.03;1.95;;;6.90;99.90;;;;;;6181888;23;20044;-82
2022/12/06 13:34:42;;;;;;;7.32;2.25;;;6.80;99.90;;;;;;6184638;23;20017;-80
2022/12/06 13:37:28;;;;;;;5.28;2.50;;;6.80;99.90;;;;;;6184315;23;20026;-79
2022/12/06 13:39:54;;;;;;;5.97;2.15;;;6.80;99.90;;;;;;6181549;23;20368;-81
2022/12/06 13:42:42;;;;;;;5.85;2.40;;;6.90;99.90;;;;;;6184601;23;20052;-81
2022/12/06 13:45:44;;;;;;;7.70;2.22;;;6.80;99.90;;;;;;6185915;23;20387;-83
2022/12/06 13:48:50;;;;;;;4.93;2.15;;;6.70;99.90;;;;;;6214309;23;20087;-84